createdAt,value
2018-01-12T00:00:40.602Z,46.80
2018-01-12T00:03:08.880Z,47.00
2018-01-12T00:05:37.589Z,47.00
2018-01-12T00:08:05.905Z,47.00
2018-01-12T00:10:34.367Z,47.00
2018-01-12T00:13:02.667Z,47.00
2018-01-12T00:15:30.977Z,47.00
2018-01-12T00:17:59.674Z,47.00
2018-01-12T00:20:28.049Z,47.00
2018-01-12T00:22:56.759Z,47.00
2018-01-12T00:25:25.108Z,47.00
2018-01-12T00:27:53.822Z,47.00
2018-01-12T00:30:22.151Z,47.00
2018-01-12T00:32:50.527Z,47.00
2018-01-12T00:35:18.839Z,47.00
2018-01-12T00:37:47.519Z,47.00
2018-01-12T00:40:16.190Z,47.00
2018-01-12T00:42:44.518Z,47.00
2018-01-12T00:45:12.822Z,47.00
2018-01-12T00:47:41.111Z,47.00
2018-01-12T00:50:09.423Z,47.00
2018-01-12T00:52:37.698Z,47.00
2018-01-12T00:55:06.048Z,47.00
2018-01-12T00:57:34.352Z,47.00
2018-01-12T01:00:02.659Z,47.00
2018-01-12T01:02:30.974Z,47.00
2018-01-12T01:04:59.251Z,47.00
2018-01-12T01:07:27.527Z,47.00
2018-01-12T01:21:48.398Z,47.30
2018-01-12T01:24:16.705Z,47.30
2018-01-12T01:26:45.419Z,47.30
2018-01-12T01:29:13.731Z,47.40
2018-01-12T01:31:42.322Z,47.30
2018-01-12T01:34:10.661Z,47.30
2018-01-12T01:36:38.962Z,47.30
2018-01-12T01:39:07.258Z,47.30
2018-01-12T01:41:35.578Z,47.10
2018-01-12T01:44:03.890Z,47.10
2018-01-12T01:46:32.423Z,47.10
2018-01-12T01:49:00.797Z,47.10
2018-01-12T01:51:29.494Z,47.10
2018-01-12T01:53:57.845Z,47.10
2018-01-12T01:56:26.930Z,47.10
2018-01-12T01:58:55.230Z,47.10
2018-01-12T02:01:23.934Z,47.00
2018-01-12T02:03:52.221Z,47.00
2018-01-12T02:06:20.529Z,47.00
2018-01-12T02:08:48.818Z,47.00
2018-01-12T02:11:17.135Z,47.00
2018-01-12T02:13:45.409Z,47.00
2018-01-12T02:16:13.715Z,47.00
2018-01-12T02:18:42.030Z,47.00
2018-01-12T02:21:10.330Z,47.00
2018-01-12T02:23:39.030Z,47.00
2018-01-12T02:26:07.354Z,47.00
2018-01-12T02:28:35.948Z,47.00
2018-01-12T02:31:04.266Z,47.00
2018-01-12T02:33:32.977Z,47.00
2018-01-12T02:36:01.258Z,47.00
2018-01-12T02:38:29.649Z,47.00
2018-01-12T02:40:57.948Z,47.00
2018-01-12T02:43:26.242Z,47.00
2018-01-12T02:45:54.950Z,47.00
2018-01-12T02:48:23.303Z,47.00
2018-01-12T02:50:51.983Z,47.00
2018-01-12T02:53:20.671Z,47.00
2018-01-12T02:55:49.398Z,47.00
2018-01-12T02:58:17.686Z,47.00
2018-01-12T03:00:46.006Z,47.00
2018-01-12T03:03:14.766Z,47.00
2018-01-12T03:05:43.491Z,47.00
2018-01-12T03:08:12.214Z,47.00
2018-01-12T03:10:40.511Z,47.00
2018-01-12T03:13:09.126Z,47.00
2018-01-12T03:15:37.803Z,47.00
2018-01-12T03:18:06.091Z,47.00
2018-01-12T03:20:34.366Z,47.00
2018-01-12T03:23:03.075Z,47.00
2018-01-12T03:25:31.377Z,47.00
2018-01-12T03:27:59.667Z,47.00
2018-01-12T03:30:27.979Z,47.00
2018-01-12T03:32:56.295Z,47.00
2018-01-12T03:35:24.943Z,47.00
2018-01-12T03:37:53.239Z,47.00
2018-01-12T03:40:21.595Z,47.00
2018-01-12T03:42:49.897Z,47.00
2018-01-12T03:45:18.228Z,47.00
2018-01-12T03:47:46.518Z,47.00
2018-01-12T03:50:14.796Z,47.00
2018-01-12T03:52:43.082Z,47.00
2018-01-12T03:55:12.247Z,47.00
2018-01-12T03:57:40.531Z,47.00
2018-01-12T04:00:08.841Z,47.10
2018-01-12T04:02:37.519Z,47.10
2018-01-12T04:05:06.906Z,47.10
2018-01-12T04:07:35.216Z,47.10
2018-01-12T04:10:03.528Z,47.10
2018-01-12T04:12:31.917Z,47.10
2018-01-12T04:15:00.246Z,47.10
2018-01-12T04:17:28.555Z,47.10
2018-01-12T04:19:56.860Z,47.10
2018-01-12T04:22:25.181Z,47.10
2018-01-12T04:24:53.489Z,47.10
2018-01-12T04:27:21.775Z,47.10
2018-01-12T04:29:50.058Z,47.00
2018-01-12T04:32:18.363Z,47.10
2018-01-12T04:34:47.047Z,47.10
2018-01-12T04:37:15.358Z,47.10
2018-01-12T04:39:43.965Z,47.10
2018-01-12T04:42:12.391Z,47.10
2018-01-12T04:44:41.061Z,47.10
2018-01-12T04:47:09.646Z,47.10
2018-01-12T04:49:37.962Z,47.10
2018-01-12T04:52:06.261Z,47.10
2018-01-12T04:54:34.562Z,47.10
2018-01-12T04:57:03.763Z,47.00
2018-01-12T04:59:32.057Z,47.00
2018-01-12T05:02:00.333Z,47.10
2018-01-12T05:04:28.922Z,47.10
2018-01-12T05:06:57.617Z,47.10
2018-01-12T05:09:25.903Z,47.10
2018-01-12T05:11:54.230Z,47.00
2018-01-12T05:14:22.558Z,47.00
2018-01-12T05:16:50.864Z,47.00
2018-01-12T05:19:19.182Z,47.00
2018-01-12T05:21:47.469Z,47.00
2018-01-12T05:24:16.138Z,47.00
2018-01-12T05:26:44.467Z,47.00
2018-01-12T05:29:12.822Z,47.10
2018-01-12T05:31:41.122Z,47.10
2018-01-12T05:34:09.444Z,47.10
2018-01-12T05:36:38.134Z,47.10
2018-01-12T05:39:06.442Z,47.10
2018-01-12T05:41:34.882Z,47.10
2018-01-12T05:44:03.190Z,47.10
2018-01-12T05:46:31.868Z,47.30
2018-01-12T05:49:00.174Z,47.30
2018-01-12T05:51:28.711Z,47.30
2018-01-12T05:53:57.294Z,47.30
2018-01-12T05:56:25.601Z,47.30
2018-01-12T05:58:54.563Z,47.10
2018-01-12T06:04:36.378Z,47.30
2018-01-12T06:07:04.782Z,47.30
2018-01-12T06:09:33.198Z,47.30
2018-01-12T06:12:01.715Z,47.40
2018-01-12T06:14:30.040Z,47.40
2018-01-12T06:16:58.710Z,47.30
2018-01-12T06:19:27.374Z,47.30
2018-01-12T06:21:55.682Z,47.30
2018-01-12T06:24:23.983Z,47.30
2018-01-12T06:26:52.259Z,47.30
2018-01-12T06:29:21.088Z,47.30
2018-01-12T06:31:49.727Z,47.30
2018-01-12T06:34:18.490Z,47.30
2018-01-12T06:36:46.861Z,47.30
2018-01-12T06:39:15.419Z,47.30
2018-01-12T06:41:43.771Z,47.10
2018-01-12T06:44:12.513Z,47.10
2018-01-12T06:46:41.963Z,47.10
2018-01-12T06:49:10.686Z,47.10
2018-01-12T06:51:39.665Z,47.10
2018-01-12T06:54:08.877Z,47.10
2018-01-12T06:56:37.554Z,47.10
2018-01-12T06:59:06.128Z,47.10
2018-01-12T07:01:34.483Z,47.00
2018-01-12T07:04:03.227Z,47.00
2018-01-12T07:06:31.598Z,47.00
2018-01-12T07:09:00.281Z,46.70
2018-01-12T07:11:28.951Z,46.70
2018-01-12T07:13:57.319Z,46.70
2018-01-12T07:16:25.682Z,46.70
2018-01-12T07:18:53.994Z,46.70
2018-01-12T07:21:34.094Z,46.50
2018-01-12T07:24:02.387Z,46.70
2018-01-12T07:26:30.663Z,46.70
2018-01-12T07:28:58.959Z,46.50
2018-01-12T07:31:27.259Z,46.50
2018-01-12T07:33:55.619Z,46.50
2018-01-12T07:36:24.382Z,46.50
2018-01-12T07:38:52.727Z,46.50
2018-01-12T07:41:21.114Z,46.40
2018-01-12T07:43:49.442Z,46.40
2018-01-12T07:46:18.142Z,46.20
2018-01-12T07:48:46.891Z,46.40
2018-01-12T07:51:15.190Z,46.40
2018-01-12T07:53:43.497Z,46.20
2018-01-12T07:56:11.859Z,46.40
2018-01-12T07:58:40.546Z,46.20
2018-01-12T08:01:14.524Z,46.20
2018-01-12T08:03:43.303Z,46.20
2018-01-12T08:06:11.857Z,46.20
2018-01-12T08:08:40.200Z,46.20
2018-01-12T08:11:08.540Z,46.40
2018-01-12T08:13:36.848Z,46.20
2018-01-12T08:16:05.227Z,46.20
2018-01-12T08:18:33.795Z,46.10
2018-01-12T08:21:02.112Z,46.10
2018-01-12T08:23:30.389Z,46.10
2018-01-12T08:25:58.708Z,46.10
2018-01-12T08:28:27.026Z,46.10
2018-01-12T08:30:55.772Z,46.10
2018-01-12T08:33:24.516Z,46.10
2018-01-12T08:35:52.835Z,46.10
2018-01-12T08:38:21.172Z,46.10
2018-01-12T08:40:49.593Z,45.90
2018-01-12T08:43:17.900Z,46.10
2018-01-12T08:45:46.657Z,45.90
2018-01-12T08:48:14.945Z,45.90
2018-01-12T08:50:43.313Z,45.80
2018-01-12T08:53:11.658Z,45.90
2018-01-12T08:55:40.072Z,45.90
2018-01-12T08:58:08.460Z,45.80
2018-01-12T09:00:36.758Z,45.90
2018-01-12T09:03:05.460Z,45.90
2018-01-12T09:05:34.202Z,45.80
2018-01-12T09:08:02.503Z,45.80
2018-01-12T09:10:30.809Z,45.80
2018-01-12T09:12:59.230Z,45.80
2018-01-12T09:15:29.453Z,45.80
2018-01-12T09:18:00.816Z,45.80
2018-01-12T09:20:34.068Z,45.80
2018-01-12T09:23:12.153Z,45.80
2018-01-12T09:25:40.444Z,45.60
2018-01-12T09:28:08.827Z,45.80
2018-01-12T09:30:37.948Z,45.80
2018-01-12T09:33:06.294Z,45.80
2018-01-12T09:35:34.592Z,45.80
2018-01-12T09:38:15.412Z,45.80
2018-01-12T09:40:50.586Z,45.80
2018-01-12T09:43:18.866Z,45.90
2018-01-12T09:45:47.231Z,45.90
2018-01-12T09:48:26.273Z,45.90
2018-01-12T09:50:54.671Z,45.80
2018-01-12T09:53:22.975Z,47.40
2018-01-12T09:55:51.677Z,47.10
2018-01-12T09:58:20.006Z,47.10
2018-01-12T10:01:06.240Z,46.80
2018-01-12T10:03:34.549Z,46.70
2018-01-12T10:06:02.994Z,46.70
2018-01-12T10:08:31.446Z,46.50
2018-01-12T10:11:00.667Z,46.50
2018-01-12T10:13:28.967Z,46.40
2018-01-12T10:15:57.708Z,46.40
2018-01-12T10:18:42.305Z,46.40
2018-01-12T10:21:22.425Z,46.40
2018-01-12T10:23:50.707Z,46.40
2018-01-12T10:26:19.023Z,68.00
2018-01-12T10:29:00.066Z,63.90
2018-01-12T10:34:44.671Z,57.30
2018-01-12T10:37:13.021Z,57.30
2018-01-12T10:39:53.226Z,55.10
2018-01-12T10:42:21.540Z,53.90
2018-01-12T10:44:50.147Z,52.40
2018-01-12T10:47:25.681Z,49.90
2018-01-12T10:52:50.694Z,48.70
2018-01-12T10:55:19.037Z,47.70
2018-01-12T10:57:47.341Z,47.00
2018-01-12T11:00:24.673Z,45.00
2018-01-12T11:02:53.413Z,44.30
2018-01-12T11:05:22.014Z,44.30
2018-01-12T11:07:50.789Z,42.20
2018-01-12T11:10:19.254Z,42.10
2018-01-12T11:12:47.552Z,40.50
2018-01-12T11:15:16.283Z,40.90
2018-01-12T11:17:44.709Z,40.90
2018-01-12T11:20:13.007Z,41.20
2018-01-12T11:22:41.342Z,41.50
2018-01-12T11:25:09.741Z,41.50
2018-01-12T11:27:38.057Z,41.90
2018-01-12T11:30:06.795Z,42.40
2018-01-12T11:32:35.081Z,42.40
2018-01-12T11:35:03.430Z,42.50
2018-01-12T11:37:31.766Z,43.00
2018-01-12T11:40:00.850Z,43.00
2018-01-12T11:42:29.142Z,43.00
2018-01-12T11:44:57.858Z,43.60
2018-01-12T11:47:26.274Z,43.60
2018-01-12T11:49:54.755Z,43.90
2018-01-12T11:52:23.063Z,43.60
2018-01-12T11:54:52.797Z,44.00
2018-01-12T11:57:21.106Z,44.00
2018-01-12T11:59:49.418Z,44.10
2018-01-12T12:02:17.714Z,44.30
2018-01-12T12:04:46.562Z,44.30
2018-01-12T12:07:14.919Z,44.30
2018-01-12T12:09:43.229Z,44.40
2018-01-12T12:12:11.594Z,45.00
2018-01-12T12:14:39.911Z,45.00
2018-01-12T12:17:08.589Z,45.00
2018-01-12T12:19:37.301Z,45.00
2018-01-12T12:22:05.640Z,45.00
2018-01-12T12:24:33.949Z,45.00
2018-01-12T12:27:02.239Z,45.00
2018-01-12T12:29:30.562Z,45.00
2018-01-12T12:31:58.942Z,44.90
2018-01-12T12:34:28.575Z,44.90
2018-01-12T12:36:57.263Z,45.00
2018-01-12T12:39:25.713Z,45.00
2018-01-12T12:41:54.011Z,45.00
2018-01-12T12:44:22.293Z,45.00
2018-01-12T12:46:51.008Z,45.20
2018-01-12T12:49:19.310Z,45.20
2018-01-12T12:51:47.901Z,45.20
2018-01-12T12:54:16.243Z,65.80
2018-01-12T12:56:44.537Z,70.00
2018-01-12T12:59:13.160Z,67.10
2018-01-12T13:01:41.580Z,64.20
2018-01-12T13:04:09.863Z,61.70
2018-01-12T13:06:38.184Z,56.30
2018-01-12T13:09:06.527Z,49.80
2018-01-12T13:11:34.830Z,48.60
2018-01-12T13:14:03.131Z,47.70
2018-01-12T13:16:31.448Z,47.10
2018-01-12T13:18:59.758Z,46.70
2018-01-12T13:21:28.056Z,46.20
2018-01-12T13:23:56.375Z,46.10
2018-01-12T13:26:24.691Z,45.90
2018-01-12T13:28:52.987Z,45.60
2018-01-12T13:31:21.724Z,45.60
2018-01-12T13:33:50.055Z,45.60
2018-01-12T13:36:18.404Z,45.80
2018-01-12T13:38:46.725Z,45.60
2018-01-12T13:41:15.457Z,45.50
2018-01-12T13:43:43.750Z,45.50
2018-01-12T13:46:12.042Z,45.90
2018-01-12T13:48:40.450Z,46.10
2018-01-12T13:51:08.776Z,46.10
2018-01-12T13:53:37.090Z,46.10
2018-01-12T13:56:05.835Z,46.10
2018-01-12T13:58:34.139Z,46.10
2018-01-12T14:01:02.570Z,46.10
2018-01-12T14:03:30.909Z,46.10
2018-01-12T14:05:59.679Z,46.10
2018-01-12T14:08:28.593Z,46.10
2018-01-12T14:10:56.971Z,46.10
2018-01-12T14:13:25.666Z,46.10
2018-01-12T14:15:54.915Z,46.10
2018-01-12T14:18:23.295Z,46.10
2018-01-12T14:20:51.608Z,46.10
2018-01-12T14:23:20.342Z,45.90
2018-01-12T14:25:48.704Z,45.90
2018-01-12T14:28:16.994Z,46.10
2018-01-12T14:30:45.351Z,46.10
2018-01-12T14:33:14.518Z,46.10
2018-01-12T14:35:43.386Z,46.10
2018-01-12T14:38:11.757Z,46.10
2018-01-12T14:40:40.046Z,46.10
2018-01-12T14:43:08.341Z,46.10
2018-01-12T14:45:36.673Z,46.10
2018-01-12T14:48:05.004Z,46.10
2018-01-12T14:50:33.707Z,46.10
2018-01-12T14:53:02.039Z,46.10
2018-01-12T14:55:30.353Z,46.10
2018-01-12T14:57:59.051Z,46.20
2018-01-12T15:00:27.514Z,46.20
2018-01-12T15:02:55.882Z,46.40
2018-01-12T15:05:24.568Z,46.20
2018-01-12T15:07:53.423Z,46.20
2018-01-12T15:10:22.153Z,46.20
2018-01-12T15:12:50.546Z,46.10
2018-01-12T15:15:19.018Z,46.20
2018-01-12T15:17:47.467Z,46.20
2018-01-12T15:20:16.313Z,46.20
2018-01-12T15:22:44.823Z,46.20
2018-01-12T15:25:13.418Z,46.20
2018-01-12T15:27:42.030Z,46.20
2018-01-12T15:30:10.377Z,46.20
2018-01-12T15:32:38.701Z,46.20
2018-01-12T15:35:07.123Z,46.20
2018-01-12T15:37:35.487Z,46.20
2018-01-12T15:40:03.776Z,46.20
2018-01-12T15:42:32.061Z,46.20
2018-01-12T15:45:00.399Z,46.10
2018-01-12T15:47:28.697Z,46.20
2018-01-12T15:49:56.984Z,46.20
2018-01-12T15:52:25.295Z,46.20
2018-01-12T15:54:53.998Z,46.40
2018-01-12T15:57:22.322Z,46.40
2018-01-12T15:59:50.701Z,46.40
2018-01-12T16:02:18.998Z,46.20
2018-01-12T16:04:47.288Z,46.20
2018-01-12T16:07:16.041Z,46.20
2018-01-12T16:09:44.357Z,46.20
2018-01-12T16:12:12.703Z,46.20
2018-01-12T16:14:41.025Z,46.20
2018-01-12T16:17:09.330Z,46.10
2018-01-12T16:19:37.626Z,46.20
2018-01-12T16:22:05.960Z,46.20
2018-01-12T16:24:34.706Z,46.20
2018-01-12T16:27:02.995Z,46.20
2018-01-12T16:29:31.878Z,46.20
2018-01-12T16:32:00.202Z,46.20
2018-01-12T16:34:28.491Z,46.20
2018-01-12T16:36:57.223Z,46.20
2018-01-12T16:39:25.606Z,46.20
2018-01-12T16:41:54.310Z,46.20
2018-01-12T16:44:22.682Z,46.20
2018-01-12T16:46:51.009Z,46.20
2018-01-12T16:49:19.312Z,46.40
2018-01-12T16:51:47.902Z,46.20
2018-01-12T16:54:16.460Z,46.40
2018-01-12T16:56:45.063Z,46.40
2018-01-12T16:59:13.404Z,46.40
2018-01-12T17:01:41.731Z,46.40
2018-01-12T17:04:10.032Z,46.40
2018-01-12T17:06:38.330Z,46.40
2018-01-12T17:09:06.639Z,46.40
2018-01-12T17:11:35.377Z,46.40
2018-01-12T17:14:03.663Z,46.40
2018-01-12T17:16:31.990Z,46.50
2018-01-12T17:19:00.271Z,46.50
2018-01-12T17:21:28.687Z,46.40
2018-01-12T17:23:57.002Z,46.50
2018-01-12T17:26:26.254Z,46.40
2018-01-12T17:28:54.579Z,46.40
2018-01-12T17:31:22.886Z,46.40
2018-01-12T17:33:51.966Z,46.40
2018-01-12T17:36:20.314Z,46.40
2018-01-12T17:38:48.666Z,46.40
2018-01-12T17:41:16.982Z,46.70
2018-01-12T17:43:45.277Z,47.00
2018-01-12T17:46:14.003Z,47.00
2018-01-12T17:48:42.326Z,47.00
2018-01-12T17:51:10.669Z,46.80
2018-01-12T17:53:39.000Z,46.80
2018-01-12T17:56:07.338Z,46.70
2018-01-12T17:58:35.672Z,46.70
2018-01-12T18:01:04.022Z,46.70
2018-01-12T18:03:32.348Z,46.50
2018-01-12T18:06:00.678Z,46.50
2018-01-12T18:08:29.401Z,46.40
2018-01-12T18:10:57.718Z,46.40
2018-01-12T18:13:26.073Z,46.50
2018-01-12T18:15:54.420Z,46.50
2018-01-12T18:18:23.187Z,46.50
2018-01-12T18:20:51.490Z,46.50
2018-01-12T18:23:20.194Z,46.50
2018-01-12T18:25:48.547Z,46.50
2018-01-12T18:28:17.246Z,46.40
2018-01-12T18:30:45.560Z,46.40
2018-01-12T18:33:13.882Z,46.40
2018-01-12T18:35:42.192Z,46.40
2018-01-12T18:38:10.524Z,46.40
2018-01-12T18:40:39.119Z,46.40
2018-01-12T18:43:07.844Z,46.40
2018-01-12T18:45:36.182Z,46.40
2018-01-12T18:48:04.570Z,46.40
2018-01-12T18:50:32.899Z,46.40
2018-01-12T18:53:01.238Z,46.40
2018-01-12T18:55:29.527Z,46.40
2018-01-12T18:57:57.815Z,46.40
2018-01-12T19:00:26.184Z,46.40
2018-01-12T19:02:54.542Z,46.40
2018-01-12T19:05:22.850Z,46.40
2018-01-12T19:07:51.184Z,46.40
2018-01-12T19:10:19.491Z,46.40
2018-01-12T19:12:47.826Z,59.20
2018-01-12T19:15:16.135Z,54.20
2018-01-12T19:17:44.478Z,51.80
2018-01-12T19:20:12.758Z,50.50
2018-01-12T19:22:41.495Z,49.30
2018-01-12T19:25:10.124Z,49.30
2018-01-12T19:27:38.482Z,49.20
2018-01-12T19:30:06.842Z,48.70
2018-01-12T19:32:35.163Z,48.60
2018-01-12T19:35:03.881Z,48.30
2018-01-12T19:37:32.230Z,48.30
2018-01-12T19:40:00.595Z,48.10
2018-01-12T19:42:28.875Z,48.00
2018-01-12T19:44:57.614Z,47.70
2018-01-12T19:47:26.022Z,47.70
2018-01-12T19:49:55.322Z,47.70
2018-01-12T19:52:24.066Z,47.50
2018-01-12T19:54:52.390Z,47.50
2018-01-12T19:57:20.839Z,47.50
2018-01-12T19:59:49.157Z,47.40
2018-01-12T20:02:17.532Z,47.30
2018-01-12T20:04:46.010Z,47.30
2018-01-12T20:07:14.380Z,47.30
2018-01-12T20:09:42.691Z,47.10
2018-01-12T20:12:11.444Z,47.10
2018-01-12T20:14:39.755Z,47.10
2018-01-12T20:17:08.098Z,47.10
2018-01-12T20:19:36.828Z,47.10
2018-01-12T20:22:05.178Z,47.10
2018-01-12T20:24:33.893Z,47.10
2018-01-12T20:27:03.277Z,47.00
2018-01-12T20:29:31.642Z,47.00
2018-01-12T20:31:59.984Z,47.00
2018-01-12T20:34:28.611Z,47.00
2018-01-12T20:36:56.926Z,47.00
2018-01-12T20:39:25.276Z,47.00
2018-01-12T20:41:54.031Z,46.80
2018-01-12T20:44:22.354Z,46.80
2018-01-12T20:46:50.760Z,46.80
2018-01-12T20:49:19.539Z,46.80
2018-01-12T20:51:47.857Z,46.80
2018-01-12T20:54:16.164Z,46.80
2018-01-12T20:56:44.534Z,46.80
2018-01-12T20:59:12.870Z,46.80
2018-01-12T21:01:41.163Z,46.80
2018-01-12T21:04:09.982Z,46.70
2018-01-12T21:06:38.435Z,46.70
2018-01-12T21:09:06.743Z,46.70
2018-01-12T21:11:35.496Z,46.70
2018-01-12T21:14:03.846Z,46.70
2018-01-12T21:16:32.126Z,46.70
2018-01-12T21:19:00.431Z,46.70
2018-01-12T21:21:29.539Z,46.70
2018-01-12T21:23:58.130Z,46.70
2018-01-12T21:26:26.910Z,46.70
2018-01-12T21:28:56.144Z,46.70
2018-01-12T21:31:24.693Z,46.70
2018-01-12T21:33:53.637Z,46.70
2018-01-12T21:36:22.925Z,46.70
2018-01-12T21:38:51.348Z,46.50
2018-01-12T21:41:19.679Z,46.70
2018-01-12T21:43:48.104Z,46.50
2018-01-12T21:46:16.391Z,46.50
2018-01-12T21:48:44.710Z,46.50
2018-01-12T21:51:13.003Z,46.50
2018-01-12T21:53:41.643Z,46.50
2018-01-12T21:56:09.990Z,46.50
2018-01-12T21:58:38.581Z,46.50
2018-01-12T22:01:07.061Z,46.50
2018-01-12T22:03:35.383Z,46.50
2018-01-12T22:06:04.077Z,46.50
2018-01-12T22:08:32.626Z,46.50
2018-01-12T22:11:00.967Z,46.50
2018-01-12T22:13:29.266Z,52.00
2018-01-12T22:15:58.047Z,70.00
2018-01-12T22:18:26.560Z,65.70
2018-01-12T22:20:54.906Z,62.10
2018-01-12T22:23:23.190Z,59.70
2018-01-12T22:25:51.555Z,58.60
2018-01-12T22:28:19.939Z,57.00
2018-01-12T22:30:48.222Z,56.30
2018-01-12T22:33:16.534Z,55.10
2018-01-12T22:35:45.309Z,53.00
2018-01-12T22:38:13.839Z,53.00
2018-01-12T22:40:42.122Z,52.00
2018-01-12T22:43:10.433Z,51.40
2018-01-12T22:45:38.724Z,50.90
2018-01-12T22:48:07.049Z,50.50
2018-01-12T22:50:35.344Z,50.10
2018-01-12T22:53:03.616Z,49.50
2018-01-12T22:55:31.986Z,49.00
2018-01-12T22:58:00.291Z,48.90
2018-01-12T23:00:28.884Z,48.40
2018-01-12T23:02:57.459Z,47.40
2018-01-12T23:05:25.762Z,44.30
2018-01-12T23:07:54.470Z,46.40
2018-01-12T23:10:22.789Z,46.50
2018-01-12T23:12:51.106Z,46.50
2018-01-12T23:15:19.782Z,45.20
2018-01-12T23:17:48.522Z,44.70
2018-01-12T23:20:16.845Z,44.70
2018-01-12T23:22:45.534Z,44.60
2018-01-12T23:25:14.288Z,44.60
2018-01-12T23:27:42.606Z,44.60
2018-01-12T23:30:11.313Z,44.90
2018-01-12T23:32:39.638Z,44.90
2018-01-12T23:35:07.938Z,45.00
2018-01-12T23:37:36.648Z,45.60
2018-01-12T23:40:04.994Z,45.60
2018-01-12T23:42:33.690Z,45.80
2018-01-12T23:45:02.408Z,45.90
2018-01-12T23:47:31.040Z,45.90
2018-01-12T23:49:59.323Z,45.90
2018-01-12T23:52:27.632Z,46.10
2018-01-12T23:54:55.982Z,46.40
2018-01-12T23:57:24.679Z,46.40
2018-01-12T23:59:53.366Z,46.50
